sensor_id;sensor_type;location;lat;lon;timestamp;pressure;altitude;pressure_sealevel;temperature;humidity
30073;BME280;16897;52.422;13.678;2023-08-17T00:02:16;101674.88;;;24.82;49.37
30073;BME280;16897;52.422;13.678;2023-08-17T00:06:17;101637.44;;;24.56;49.17
30073;BME280;16897;52.422;13.678;2023-08-17T00:10:19;101676.09;;;24.69;49.25
30073;BME280;16897;52.422;13.678;2023-08-17T00:14:21;101662.69;;;24.61;49.28
30073;BME280;16897;52.422;13.678;2023-08-17T00:18:22;101657.41;;;24.51;49.61
30073;BME280;16897;52.422;13.678;2023-08-17T00:22:24;101649.06;;;24.37;49.17
30073;BME280;16897;52.422;13.678;2023-08-17T00:26:25;101671.69;;;24.60;49.46
30073;BME280;16897;52.422;13.678;2023-08-17T00:30:27;101662.91;;;24.50;49.29
30073;BME280;16897;52.422;13.678;2023-08-17T00:34:29;101659.63;;;24.56;49.44
30073;BME280;16897;52.422;13.678;2023-08-17T00:38:30;101613.97;;;24.32;49.47
30073;BME280;16897;52.422;13.678;2023-08-17T00:42:32;101636.25;;;24.40;49.39
30073;BME280;16897;52.422;13.678;2023-08-17T00:46:33;101648.06;;;24.38;49.47
30073;BME280;16897;52.422;13.678;2023-08-17T00:50:35;101658.84;;;24.28;49.28
30073;BME280;16897;52.422;13.678;2023-08-17T00:54:38;101633.13;;;24.09;49.49
30073;BME280;16897;52.422;13.678;2023-08-17T00:58:39;101647.22;;;24.01;49.72
30073;BME280;16897;52.422;13.678;2023-08-17T01:02:43;101630.94;;;23.95;49.49
30073;BME280;16897;52.422;13.678;2023-08-17T01:06:45;101657.06;;;24.01;49.78
30073;BME280;16897;52.422;13.678;2023-08-17T01:11:02;101656.66;;;23.96;49.84
30073;BME280;16897;52.422;13.678;2023-08-17T01:19:10;101643.53;;;23.84;49.88
30073;BME280;16897;52.422;13.678;2023-08-17T01:23:14;101645.53;;;23.73;49.73
30073;BME280;16897;52.422;13.678;2023-08-17T01:27:16;101646.78;;;23.78;49.70
30073;BME280;16897;52.422;13.678;2023-08-17T01:31:22;101626.75;;;23.64;49.69
30073;BME280;16897;52.422;13.678;2023-08-17T01:35:34;101644.56;;;23.64;49.88
30073;BME280;16897;52.422;13.678;2023-08-17T01:39:42;101627.97;;;23.42;50.13
30073;BME280;16897;52.422;13.678;2023-08-17T01:43:44;101644.38;;;23.48;50.05
30073;BME280;16897;52.422;13.678;2023-08-17T01:47:48;101608.81;;;23.19;50.12
30073;BME280;16897;52.422;13.678;2023-08-17T01:51:50;101652.16;;;23.31;50.38
30073;BME280;16897;52.422;13.678;2023-08-17T01:55:52;101653.28;;;23.29;49.78
30073;BME280;16897;52.422;13.678;2023-08-17T01:59:54;101654.66;;;23.33;50.29
30073;BME280;16897;52.422;13.678;2023-08-17T02:03:56;101590.25;;;22.90;49.96
30073;BME280;16897;52.422;13.678;2023-08-17T02:07:57;101655.09;;;23.28;50.37
30073;BME280;16897;52.422;13.678;2023-08-17T02:11:59;101662.81;;;23.31;49.95
30073;BME280;16897;52.422;13.678;2023-08-17T02:16:00;101618.81;;;23.08;49.96
30073;BME280;16897;52.422;13.678;2023-08-17T02:20:02;101656.06;;;23.27;50.37
30073;BME280;16897;52.422;13.678;2023-08-17T02:24:05;101653.84;;;23.23;50.41
30073;BME280;16897;52.422;13.678;2023-08-17T02:28:07;101605.34;;;22.90;50.35
30073;BME280;16897;52.422;13.678;2023-08-17T02:32:09;101619.41;;;23.02;50.56
30073;BME280;16897;52.422;13.678;2023-08-17T02:36:11;101578.09;;;22.68;50.26
30073;BME280;16897;52.422;13.678;2023-08-17T02:40:13;101589.28;;;22.72;50.63
30073;BME280;16897;52.422;13.678;2023-08-17T02:44:15;101624.31;;;22.96;50.54
30073;BME280;16897;52.422;13.678;2023-08-17T02:48:16;101617.44;;;22.84;50.54
30073;BME280;16897;52.422;13.678;2023-08-17T02:52:18;101583.00;;;22.63;50.65
30073;BME280;16897;52.422;13.678;2023-08-17T02:56:19;101624.72;;;22.92;50.79
30073;BME280;16897;52.422;13.678;2023-08-17T03:00:22;101579.91;;;22.68;50.32
30073;BME280;16897;52.422;13.678;2023-08-17T03:04:24;101594.34;;;22.75;50.75
30073;BME280;16897;52.422;13.678;2023-08-17T03:08:26;101601.31;;;22.76;50.59
30073;BME280;16897;52.422;13.678;2023-08-17T03:12:28;101623.63;;;22.85;50.54
30073;BME280;16897;52.422;13.678;2023-08-17T03:16:29;101599.66;;;22.75;50.54
30073;BME280;16897;52.422;13.678;2023-08-17T03:20:34;101590.41;;;22.69;50.48
30073;BME280;16897;52.422;13.678;2023-08-17T03:28:37;101612.44;;;22.71;51.01
30073;BME280;16897;52.422;13.678;2023-08-17T03:32:39;101593.66;;;22.53;50.67
30073;BME280;16897;52.422;13.678;2023-08-17T03:36:42;101578.81;;;22.41;51.02
30073;BME280;16897;52.422;13.678;2023-08-17T03:40:43;101579.09;;;22.38;50.56
30073;BME280;16897;52.422;13.678;2023-08-17T03:44:45;101614.38;;;22.60;50.70
30073;BME280;16897;52.422;13.678;2023-08-17T03:48:46;101600.66;;;22.54;50.80
30073;BME280;16897;52.422;13.678;2023-08-17T03:52:48;101609.34;;;22.57;50.98
30073;BME280;16897;52.422;13.678;2023-08-17T03:56:51;101570.69;;;22.33;51.14
30073;BME280;16897;52.422;13.678;2023-08-17T04:00:54;101612.84;;;22.57;51.15
30073;BME280;16897;52.422;13.678;2023-08-17T04:05:01;101567.91;;;22.35;50.81
30073;BME280;16897;52.422;13.678;2023-08-17T04:09:03;101572.81;;;22.39;51.27
30073;BME280;16897;52.422;13.678;2023-08-17T04:13:05;101587.22;;;22.46;50.79
30073;BME280;16897;52.422;13.678;2023-08-17T04:17:06;101544.22;;;22.22;51.32
30073;BME280;16897;52.422;13.678;2023-08-17T04:21:08;101570.84;;;22.31;51.35
30073;BME280;16897;52.422;13.678;2023-08-17T04:25:09;101586.94;;;22.40;51.26
30073;BME280;16897;52.422;13.678;2023-08-17T04:29:11;101593.38;;;22.37;51.03
30073;BME280;16897;52.422;13.678;2023-08-17T04:33:13;101602.09;;;22.39;51.21
30073;BME280;16897;52.422;13.678;2023-08-17T04:37:15;101600.81;;;22.34;50.91
30073;BME280;16897;52.422;13.678;2023-08-17T04:41:17;101591.97;;;22.33;51.04
30073;BME280;16897;52.422;13.678;2023-08-17T04:45:18;101604.75;;;22.39;51.07
30073;BME280;16897;52.422;13.678;2023-08-17T04:49:21;101577.25;;;22.19;51.19
30073;BME280;16897;52.422;13.678;2023-08-17T04:53:23;101576.03;;;22.23;51.37
30073;BME280;16897;52.422;13.678;2023-08-17T04:57:25;101614.09;;;22.43;51.50
30073;BME280;16897;52.422;13.678;2023-08-17T05:01:27;101619.44;;;22.43;51.51
30073;BME280;16897;52.422;13.678;2023-08-17T05:05:29;101580.22;;;22.26;51.51
30073;BME280;16897;52.422;13.678;2023-08-17T05:09:31;101618.72;;;22.41;51.22
30073;BME280;16897;52.422;13.678;2023-08-17T05:13:34;101593.66;;;22.34;51.10
30073;BME280;16897;52.422;13.678;2023-08-17T05:17:39;101613.28;;;22.52;51.18
30073;BME280;16897;52.422;13.678;2023-08-17T05:21:43;101603.75;;;22.50;51.51
30073;BME280;16897;52.422;13.678;2023-08-17T05:25:46;101607.97;;;22.52;51.25
30073;BME280;16897;52.422;13.678;2023-08-17T05:29:49;101602.47;;;22.54;51.39
30073;BME280;16897;52.422;13.678;2023-08-17T05:33:50;101583.72;;;22.46;51.40
30073;BME280;16897;52.422;13.678;2023-08-17T05:37:54;101567.75;;;22.36;51.60
30073;BME280;16897;52.422;13.678;2023-08-17T05:41:56;101604.31;;;22.53;51.34
30073;BME280;16897;52.422;13.678;2023-08-17T05:45:58;101610.47;;;22.64;51.39
30073;BME280;16897;52.422;13.678;2023-08-17T05:50:03;101607.53;;;22.67;51.80
30073;BME280;16897;52.422;13.678;2023-08-17T05:54:04;101593.50;;;22.65;51.81
30073;BME280;16897;52.422;13.678;2023-08-17T05:58:05;101613.25;;;22.72;51.45
30073;BME280;16897;52.422;13.678;2023-08-17T06:02:07;101622.63;;;22.76;51.41
30073;BME280;16897;52.422;13.678;2023-08-17T06:06:09;101639.72;;;22.83;51.89
30073;BME280;16897;52.422;13.678;2023-08-17T06:10:10;101572.94;;;22.47;51.99
30073;BME280;16897;52.422;13.678;2023-08-17T06:14:13;101642.28;;;22.85;51.99
30073;BME280;16897;52.422;13.678;2023-08-17T06:18:14;101666.22;;;22.94;51.76
30073;BME280;16897;52.422;13.678;2023-08-17T06:22:15;101714.56;;;23.29;51.97
30073;BME280;16897;52.422;13.678;2023-08-17T06:26:17;101699.69;;;23.36;51.82
30073;BME280;16897;52.422;13.678;2023-08-17T06:30:19;101675.13;;;23.32;51.65
30073;BME280;16897;52.422;13.678;2023-08-17T06:34:20;101689.16;;;23.44;51.49
30073;BME280;16897;52.422;13.678;2023-08-17T06:38:21;101658.44;;;23.30;51.82
30073;BME280;16897;52.422;13.678;2023-08-17T06:42:23;101676.06;;;23.51;51.40
30073;BME280;16897;52.422;13.678;2023-08-17T06:46:24;101684.19;;;23.49;51.50
30073;BME280;16897;52.422;13.678;2023-08-17T06:50:26;101693.91;;;23.50;51.60
30073;BME280;16897;52.422;13.678;2023-08-17T06:54:28;101687.25;;;23.54;51.68
30073;BME280;16897;52.422;13.678;2023-08-17T06:58:29;101679.31;;;23.45;51.36
30073;BME280;16897;52.422;13.678;2023-08-17T07:02:31;101682.69;;;23.47;51.41
30073;BME280;16897;52.422;13.678;2023-08-17T07:06:32;101673.41;;;23.41;51.37
30073;BME280;16897;52.422;13.678;2023-08-17T07:10:34;101676.94;;;23.41;51.48
30073;BME280;16897;52.422;13.678;2023-08-17T07:14:36;101672.44;;;23.42;51.73
30073;BME280;16897;52.422;13.678;2023-08-17T07:18:38;101682.94;;;23.44;51.30
30073;BME280;16897;52.422;13.678;2023-08-17T07:22:39;101691.75;;;23.54;51.49
30073;BME280;16897;52.422;13.678;2023-08-17T07:26:41;101639.28;;;23.17;51.81
30073;BME280;16897;52.422;13.678;2023-08-17T07:30:42;101683.53;;;23.47;51.39
30073;BME280;16897;52.422;13.678;2023-08-17T07:34:44;101694.44;;;23.54;51.37
30073;BME280;16897;52.422;13.678;2023-08-17T07:38:45;101676.19;;;23.49;51.83
30073;BME280;16897;52.422;13.678;2023-08-17T07:42:47;101690.22;;;23.61;51.52
30073;BME280;16897;52.422;13.678;2023-08-17T07:46:49;101651.97;;;23.42;51.36
30073;BME280;16897;52.422;13.678;2023-08-17T07:50:51;101682.59;;;23.66;51.57
30073;BME280;16897;52.422;13.678;2023-08-17T07:54:52;101635.25;;;23.40;51.87
30073;BME280;16897;52.422;13.678;2023-08-17T07:58:54;101673.59;;;23.67;51.62
30073;BME280;16897;52.422;13.678;2023-08-17T08:02:55;101676.97;;;23.69;51.51
30073;BME280;16897;52.422;13.678;2023-08-17T08:06:57;101674.03;;;23.72;51.66
30073;BME280;16897;52.422;13.678;2023-08-17T08:10:58;101672.06;;;23.74;51.32
30073;BME280;16897;52.422;13.678;2023-08-17T08:14:59;101674.84;;;23.82;51.78
30073;BME280;16897;52.422;13.678;2023-08-17T08:19:01;101645.69;;;23.71;51.53
30073;BME280;16897;52.422;13.678;2023-08-17T08:23:02;101656.41;;;23.89;51.75
30073;BME280;16897;52.422;13.678;2023-08-17T08:27:04;101655.25;;;23.92;51.69
30073;BME280;16897;52.422;13.678;2023-08-17T08:31:05;101641.31;;;23.98;52.03
30073;BME280;16897;52.422;13.678;2023-08-17T08:35:07;101653.16;;;24.13;51.57
30073;BME280;16897;52.422;13.678;2023-08-17T08:39:09;101649.13;;;24.27;51.62
30073;BME280;16897;52.422;13.678;2023-08-17T08:43:11;101641.50;;;24.32;51.70
30073;BME280;16897;52.422;13.678;2023-08-17T08:47:13;101646.09;;;24.40;51.80
30073;BME280;16897;52.422;13.678;2023-08-17T08:51:15;101637.56;;;24.54;52.07
30073;BME280;16897;52.422;13.678;2023-08-17T08:55:18;101616.88;;;24.56;52.11
30073;BME280;16897;52.422;13.678;2023-08-17T08:59:22;101612.81;;;24.70;51.87
30073;BME280;16897;52.422;13.678;2023-08-17T09:03:25;101632.47;;;24.87;52.07
30073;BME280;16897;52.422;13.678;2023-08-17T09:07:29;101608.44;;;24.87;52.07
30073;BME280;16897;52.422;13.678;2023-08-17T09:11:30;101569.31;;;24.78;51.71
30073;BME280;16897;52.422;13.678;2023-08-17T09:15:32;101605.06;;;25.11;51.78
30073;BME280;16897;52.422;13.678;2023-08-17T09:19:33;101580.81;;;25.04;51.73
30073;BME280;16897;52.422;13.678;2023-08-17T09:23:35;101601.50;;;25.20;52.02
30073;BME280;16897;52.422;13.678;2023-08-17T09:27:41;101597.66;;;25.23;51.53
30073;BME280;16897;52.422;13.678;2023-08-17T09:31:42;101585.78;;;25.17;51.99
30073;BME280;16897;52.422;13.678;2023-08-17T09:35:44;101594.81;;;25.24;51.48
30073;BME280;16897;52.422;13.678;2023-08-17T09:39:45;101585.63;;;25.27;51.52
30073;BME280;16897;52.422;13.678;2023-08-17T09:43:47;101587.38;;;25.36;51.93
30073;BME280;16897;52.422;13.678;2023-08-17T09:47:48;101557.72;;;25.21;51.46
30073;BME280;16897;52.422;13.678;2023-08-17T09:51:50;101563.59;;;25.33;51.78
30073;BME280;16897;52.422;13.678;2023-08-17T09:55:53;101558.94;;;25.35;51.51
30073;BME280;16897;52.422;13.678;2023-08-17T09:59:56;101560.31;;;25.39;51.50
30073;BME280;16897;52.422;13.678;2023-08-17T10:03:57;101565.44;;;25.32;51.57
30073;BME280;16897;52.422;13.678;2023-08-17T10:08:00;101569.63;;;25.35;51.70
30073;BME280;16897;52.422;13.678;2023-08-17T10:12:10;101569.19;;;25.48;51.69
30073;BME280;16897;52.422;13.678;2023-08-17T10:20:21;101526.16;;;25.33;51.71
30073;BME280;16897;52.422;13.678;2023-08-17T10:24:22;101566.53;;;25.56;52.09
30073;BME280;16897;52.422;13.678;2023-08-17T10:28:24;101561.22;;;25.64;51.78
30073;BME280;16897;52.422;13.678;2023-08-17T10:32:26;101563.22;;;25.70;51.89
30073;BME280;16897;52.422;13.678;2023-08-17T10:36:30;101529.91;;;25.56;51.73
30073;BME280;16897;52.422;13.678;2023-08-17T10:40:36;101550.38;;;25.82;51.92
30073;BME280;16897;52.422;13.678;2023-08-17T10:44:45;101563.50;;;26.01;51.75
30073;BME280;16897;52.422;13.678;2023-08-17T10:48:47;101549.94;;;26.11;51.97
30073;BME280;16897;52.422;13.678;2023-08-17T10:52:50;101547.09;;;26.29;51.75
30073;BME280;16897;52.422;13.678;2023-08-17T10:56:51;101526.69;;;26.36;51.78
30073;BME280;16897;52.422;13.678;2023-08-17T11:00:56;101539.91;;;26.54;51.95
30073;BME280;16897;52.422;13.678;2023-08-17T11:04:58;101540.75;;;26.63;51.96
30073;BME280;16897;52.422;13.678;2023-08-17T11:08:59;101540.06;;;26.69;51.91
30073;BME280;16897;52.422;13.678;2023-08-17T11:13:07;101533.19;;;26.75;51.99
30073;BME280;16897;52.422;13.678;2023-08-17T11:17:09;101531.31;;;26.83;51.87
30073;BME280;16897;52.422;13.678;2023-08-17T11:21:10;101533.97;;;26.91;51.85
30073;BME280;16897;52.422;13.678;2023-08-17T11:25:12;101537.66;;;26.90;51.90
30073;BME280;16897;52.422;13.678;2023-08-17T11:29:13;101524.59;;;26.87;51.96
30073;BME280;16897;52.422;13.678;2023-08-17T11:33:15;101529.91;;;27.04;51.85
30073;BME280;16897;52.422;13.678;2023-08-17T11:37:16;101538.09;;;27.19;51.76
30073;BME280;16897;52.422;13.678;2023-08-17T11:41:18;101547.28;;;27.24;51.99
30073;BME280;16897;52.422;13.678;2023-08-17T11:45:20;101531.50;;;27.29;52.26
30073;BME280;16897;52.422;13.678;2023-08-17T11:49:22;101541.84;;;27.41;52.01
30073;BME280;16897;52.422;13.678;2023-08-17T11:53:31;101543.94;;;27.53;51.94
30073;BME280;16897;52.422;13.678;2023-08-17T11:57:34;101539.56;;;27.61;51.93
30073;BME280;16897;52.422;13.678;2023-08-17T12:01:35;101520.00;;;27.52;51.49
30073;BME280;16897;52.422;13.678;2023-08-17T12:05:37;101510.03;;;27.61;51.90
30073;BME280;16897;52.422;13.678;2023-08-17T12:09:38;101516.03;;;27.71;51.69
30073;BME280;16897;52.422;13.678;2023-08-17T12:13:41;101512.94;;;27.82;51.63
30073;BME280;16897;52.422;13.678;2023-08-17T12:17:46;101517.38;;;27.98;51.68
30073;BME280;16897;52.422;13.678;2023-08-17T12:21:48;101518.97;;;28.07;51.85
30073;BME280;16897;52.422;13.678;2023-08-17T12:25:54;101506.00;;;28.11;51.69
30073;BME280;16897;52.422;13.678;2023-08-17T12:29:56;101503.81;;;28.14;51.78
30073;BME280;16897;52.422;13.678;2023-08-17T12:33:58;101502.78;;;28.15;51.59
30073;BME280;16897;52.422;13.678;2023-08-17T12:37:59;101511.50;;;28.32;51.61
30073;BME280;16897;52.422;13.678;2023-08-17T12:42:01;101489.56;;;28.29;51.77
30073;BME280;16897;52.422;13.678;2023-08-17T12:46:03;101504.53;;;28.46;51.92
30073;BME280;16897;52.422;13.678;2023-08-17T12:50:04;101482.06;;;28.39;51.65
30073;BME280;16897;52.422;13.678;2023-08-17T12:54:06;101450.63;;;28.24;51.66
30073;BME280;16897;52.422;13.678;2023-08-17T12:58:08;101463.25;;;28.39;51.21
30073;BME280;16897;52.422;13.678;2023-08-17T13:02:11;101481.19;;;28.61;51.56
30073;BME280;16897;52.422;13.678;2023-08-17T13:06:12;101486.66;;;28.68;51.38
30073;BME280;16897;52.422;13.678;2023-08-17T13:10:14;101468.78;;;28.60;51.39
30073;BME280;16897;52.422;13.678;2023-08-17T13:14:23;101496.38;;;28.84;51.32
30073;BME280;16897;52.422;13.678;2023-08-17T13:18:24;101473.59;;;28.80;51.12
30073;BME280;16897;52.422;13.678;2023-08-17T13:22:26;101462.00;;;28.79;51.30
30073;BME280;16897;52.422;13.678;2023-08-17T13:26:27;101474.88;;;28.99;51.45
30073;BME280;16897;52.422;13.678;2023-08-17T13:30:28;101475.63;;;29.07;51.22
30073;BME280;16897;52.422;13.678;2023-08-17T13:34:30;101438.41;;;28.96;51.31
30073;BME280;16897;52.422;13.678;2023-08-17T13:38:32;101427.47;;;28.98;51.12
30073;BME280;16897;52.422;13.678;2023-08-17T13:42:34;101461.75;;;29.25;51.16
30073;BME280;16897;52.422;13.678;2023-08-17T13:46:36;101453.75;;;29.32;51.00
30073;BME280;16897;52.422;13.678;2023-08-17T13:50:38;101449.00;;;29.34;51.39
30073;BME280;16897;52.422;13.678;2023-08-17T13:54:41;101452.50;;;29.49;51.01
30073;BME280;16897;52.422;13.678;2023-08-17T13:58:42;101444.28;;;29.58;51.19
30073;BME280;16897;52.422;13.678;2023-08-17T14:02:44;101436.13;;;29.66;51.12
30073;BME280;16897;52.422;13.678;2023-08-17T14:06:45;101443.66;;;29.77;51.03
30073;BME280;16897;52.422;13.678;2023-08-17T14:10:47;101407.88;;;29.62;50.74
30073;BME280;16897;52.422;13.678;2023-08-17T14:14:48;101423.53;;;29.73;50.76
30073;BME280;16897;52.422;13.678;2023-08-17T14:18:50;101442.50;;;29.86;50.82
30073;BME280;16897;52.422;13.678;2023-08-17T14:22:51;101436.34;;;29.92;50.63
30073;BME280;16897;52.422;13.678;2023-08-17T14:26:52;101428.06;;;29.94;50.74
30073;BME280;16897;52.422;13.678;2023-08-17T14:30:54;101423.75;;;29.99;50.54
30073;BME280;16897;52.422;13.678;2023-08-17T14:34:55;101396.38;;;29.96;50.87
30073;BME280;16897;52.422;13.678;2023-08-17T14:38:57;101424.06;;;30.11;50.46
30073;BME280;16897;52.422;13.678;2023-08-17T14:42:58;101407.81;;;30.05;50.61
30073;BME280;16897;52.422;13.678;2023-08-17T14:46:59;101417.88;;;30.17;50.66
30073;BME280;16897;52.422;13.678;2023-08-17T14:51:01;101398.75;;;30.12;50.61
30073;BME280;16897;52.422;13.678;2023-08-17T14:55:02;101395.72;;;30.22;50.30
30073;BME280;16897;52.422;13.678;2023-08-17T14:59:05;101403.22;;;30.27;50.60
30073;BME280;16897;52.422;13.678;2023-08-17T15:03:07;101401.34;;;30.27;50.32
30073;BME280;16897;52.422;13.678;2023-08-17T15:07:09;101397.41;;;30.23;50.40
30073;BME280;16897;52.422;13.678;2023-08-17T15:11:13;101406.38;;;30.30;50.14
30073;BME280;16897;52.422;13.678;2023-08-17T15:15:15;101404.91;;;30.28;50.31
30073;BME280;16897;52.422;13.678;2023-08-17T15:19:16;101407.59;;;30.28;50.29
30073;BME280;16897;52.422;13.678;2023-08-17T15:23:18;101419.63;;;30.32;50.12
30073;BME280;16897;52.422;13.678;2023-08-17T15:27:19;101408.22;;;30.30;49.88
30073;BME280;16897;52.422;13.678;2023-08-17T15:31:21;101425.69;;;30.40;50.25
30073;BME280;16897;52.422;13.678;2023-08-17T15:35:23;101417.41;;;30.35;50.15
30073;BME280;16897;52.422;13.678;2023-08-17T15:39:25;101419.28;;;30.41;50.14
30073;BME280;16897;52.422;13.678;2023-08-17T15:43:27;101410.31;;;30.34;50.01
30073;BME280;16897;52.422;13.678;2023-08-17T15:47:28;101430.66;;;30.37;49.99
30073;BME280;16897;52.422;13.678;2023-08-17T15:51:30;101419.69;;;30.38;50.07
30073;BME280;16897;52.422;13.678;2023-08-17T15:55:32;101409.69;;;30.32;50.06
30073;BME280;16897;52.422;13.678;2023-08-17T15:59:33;101409.31;;;30.35;50.00
30073;BME280;16897;52.422;13.678;2023-08-17T16:03:36;101410.38;;;30.41;50.02
30073;BME280;16897;52.422;13.678;2023-08-17T16:07:37;101421.59;;;30.45;49.94
30073;BME280;16897;52.422;13.678;2023-08-17T16:11:38;101418.47;;;30.41;49.93
30073;BME280;16897;52.422;13.678;2023-08-17T16:15:40;101424.47;;;30.43;49.82
30073;BME280;16897;52.422;13.678;2023-08-17T16:19:42;101424.91;;;30.47;49.81
30073;BME280;16897;52.422;13.678;2023-08-17T16:23:43;101417.59;;;30.40;49.66
30073;BME280;16897;52.422;13.678;2023-08-17T16:27:45;101414.84;;;30.27;49.63
30073;BME280;16897;52.422;13.678;2023-08-17T16:31:57;101423.31;;;30.24;49.30
30073;BME280;16897;52.422;13.678;2023-08-17T16:35:59;101417.63;;;30.12;49.66
30073;BME280;16897;52.422;13.678;2023-08-17T16:40:01;101391.16;;;29.94;49.17
30073;BME280;16897;52.422;13.678;2023-08-17T16:44:05;101406.34;;;30.02;49.59
30073;BME280;16897;52.422;13.678;2023-08-17T16:48:06;101420.03;;;30.01;49.54
30073;BME280;16897;52.422;13.678;2023-08-17T16:52:08;101423.94;;;29.98;49.63
30073;BME280;16897;52.422;13.678;2023-08-17T16:56:09;101418.31;;;29.93;49.22
30073;BME280;16897;52.422;13.678;2023-08-17T17:00:11;101415.16;;;29.89;49.64
30073;BME280;16897;52.422;13.678;2023-08-17T17:04:13;101403.91;;;29.79;49.58
30073;BME280;16897;52.422;13.678;2023-08-17T17:08:15;101408.09;;;29.82;49.23
30073;BME280;16897;52.422;13.678;2023-08-17T17:12:16;101385.16;;;29.64;49.06
30073;BME280;16897;52.422;13.678;2023-08-17T17:16:18;101372.75;;;29.48;49.17
30073;BME280;16897;52.422;13.678;2023-08-17T17:20:22;101407.97;;;29.68;49.26
30073;BME280;16897;52.422;13.678;2023-08-17T17:24:23;101413.06;;;29.63;49.29
30073;BME280;16897;52.422;13.678;2023-08-17T17:28:27;101387.25;;;29.47;49.55
30073;BME280;16897;52.422;13.678;2023-08-17T17:32:29;101405.78;;;29.57;49.43
30073;BME280;16897;52.422;13.678;2023-08-17T17:36:31;101403.66;;;29.52;49.13
30073;BME280;16897;52.422;13.678;2023-08-17T17:40:32;101392.13;;;29.37;49.14
30073;BME280;16897;52.422;13.678;2023-08-17T17:44:34;101412.13;;;29.49;49.50
30073;BME280;16897;52.422;13.678;2023-08-17T17:48:35;101417.50;;;29.49;49.18
30073;BME280;16897;52.422;13.678;2023-08-17T17:52:37;101428.28;;;29.49;49.58
30073;BME280;16897;52.422;13.678;2023-08-17T17:56:42;101434.22;;;29.45;49.58
30073;BME280;16897;52.422;13.678;2023-08-17T18:00:45;101411.72;;;29.31;49.30
30073;BME280;16897;52.422;13.678;2023-08-17T18:04:47;101443.91;;;29.39;49.34
30073;BME280;16897;52.422;13.678;2023-08-17T18:08:49;101446.97;;;29.36;49.37
30073;BME280;16897;52.422;13.678;2023-08-17T18:12:50;101432.03;;;29.33;49.26
30073;BME280;16897;52.422;13.678;2023-08-17T18:16:53;101441.13;;;29.32;49.39
30073;BME280;16897;52.422;13.678;2023-08-17T18:20:54;101437.34;;;29.27;49.58
30073;BME280;16897;52.422;13.678;2023-08-17T18:24:56;101448.69;;;29.22;49.61
30073;BME280;16897;52.422;13.678;2023-08-17T18:28:58;101442.56;;;29.14;49.20
30073;BME280;16897;52.422;13.678;2023-08-17T18:33:00;101446.69;;;29.09;49.24
30073;BME280;16897;52.422;13.678;2023-08-17T18:37:01;101447.59;;;29.02;49.68
30073;BME280;16897;52.422;13.678;2023-08-17T18:41:07;101454.81;;;29.01;49.64
30073;BME280;16897;52.422;13.678;2023-08-17T18:45:09;101458.91;;;28.97;49.59
30073;BME280;16897;52.422;13.678;2023-08-17T18:49:11;101463.00;;;28.93;49.60
30073;BME280;16897;52.422;13.678;2023-08-17T18:53:12;101458.00;;;28.90;49.49
30073;BME280;16897;52.422;13.678;2023-08-17T18:57:14;101468.47;;;28.85;49.23
30073;BME280;16897;52.422;13.678;2023-08-17T19:01:15;101458.81;;;28.76;49.61
30073;BME280;16897;52.422;13.678;2023-08-17T19:05:17;101463.97;;;28.71;49.49
30073;BME280;16897;52.422;13.678;2023-08-17T19:09:18;101437.06;;;28.41;49.75
30073;BME280;16897;52.422;13.678;2023-08-17T19:13:20;101471.19;;;28.55;49.59
30073;BME280;16897;52.422;13.678;2023-08-17T19:17:21;101475.91;;;28.53;49.56
30073;BME280;16897;52.422;13.678;2023-08-17T19:21:23;101451.84;;;28.37;49.41
30073;BME280;16897;52.422;13.678;2023-08-17T19:25:24;101465.47;;;28.35;49.71
30073;BME280;16897;52.422;13.678;2023-08-17T19:29:25;101465.75;;;28.26;49.95
30073;BME280;16897;52.422;13.678;2023-08-17T19:33:27;101457.28;;;28.14;49.43
30073;BME280;16897;52.422;13.678;2023-08-17T19:37:29;101428.84;;;28.05;49.70
30073;BME280;16897;52.422;13.678;2023-08-17T19:41:30;101434.41;;;28.03;49.36
30073;BME280;16897;52.422;13.678;2023-08-17T19:45:35;101436.81;;;27.98;49.55
30073;BME280;16897;52.422;13.678;2023-08-17T19:49:36;101443.38;;;27.95;49.58
30073;BME280;16897;52.422;13.678;2023-08-17T19:53:38;101431.84;;;27.87;49.54
30073;BME280;16897;52.422;13.678;2023-08-17T19:57:42;101431.69;;;27.88;49.54
30073;BME280;16897;52.422;13.678;2023-08-17T20:01:47;101421.84;;;27.80;49.67
30073;BME280;16897;52.422;13.678;2023-08-17T20:05:50;101422.34;;;27.76;49.88
30073;BME280;16897;52.422;13.678;2023-08-17T20:09:51;101406.50;;;27.66;49.64
30073;BME280;16897;52.422;13.678;2023-08-17T20:13:56;101410.91;;;27.59;49.42
30073;BME280;16897;52.422;13.678;2023-08-17T20:17:57;101418.97;;;27.59;49.71
30073;BME280;16897;52.422;13.678;2023-08-17T20:21:59;101409.13;;;27.51;49.88
30073;BME280;16897;52.422;13.678;2023-08-17T20:26:00;101414.38;;;27.45;49.55
30073;BME280;16897;52.422;13.678;2023-08-17T20:30:02;101399.41;;;27.27;49.98
30073;BME280;16897;52.422;13.678;2023-08-17T20:34:04;101411.16;;;27.26;49.58
30073;BME280;16897;52.422;13.678;2023-08-17T20:38:08;101409.34;;;27.19;49.69
30073;BME280;16897;52.422;13.678;2023-08-17T20:42:10;101415.56;;;27.11;49.76
30073;BME280;16897;52.422;13.678;2023-08-17T20:46:13;101408.59;;;27.02;49.79
30073;BME280;16897;52.422;13.678;2023-08-17T20:50:15;101427.53;;;27.00;49.44
30073;BME280;16897;52.422;13.678;2023-08-17T20:54:16;101443.50;;;26.93;49.77
30073;BME280;16897;52.422;13.678;2023-08-17T20:58:21;101454.91;;;26.87;49.99
30073;BME280;16897;52.422;13.678;2023-08-17T21:02:23;101452.41;;;26.86;49.82